createdAt,value
2019-01-21T00:01:36.028Z,111.30
2019-01-21T00:04:05.832Z,111.53
2019-01-21T00:06:35.626Z,109.20
2019-01-21T00:09:06.943Z,116.57
2019-01-21T00:11:36.711Z,104.83
2019-01-21T00:14:07.971Z,102.80
2019-01-21T00:16:37.760Z,98.27
2019-01-21T00:19:07.417Z,98.00
2019-01-21T00:21:37.211Z,98.37
2019-01-21T00:24:06.944Z,107.10
2019-01-21T00:26:36.759Z,104.50
2019-01-21T00:29:06.494Z,103.00
2019-01-21T00:31:36.254Z,106.47
2019-01-21T00:34:05.951Z,98.83
2019-01-21T00:36:35.726Z,100.20
2019-01-21T00:39:07.222Z,105.80
2019-01-21T00:41:36.985Z,110.43
2019-01-21T00:44:06.767Z,105.33
2019-01-21T00:46:36.458Z,104.93
2019-01-21T00:49:06.185Z,101.70
2019-01-21T00:51:35.961Z,98.93
2019-01-21T00:54:05.654Z,104.37
2019-01-21T00:56:35.370Z,113.80
2019-01-21T00:59:05.191Z,104.87
2019-01-21T01:01:34.871Z,107.10
2019-01-21T01:04:04.586Z,104.00
2019-01-21T01:06:34.342Z,103.10
2019-01-21T01:09:05.609Z,102.03
2019-01-21T01:11:35.403Z,99.70
2019-01-21T01:14:05.268Z,108.03
2019-01-21T01:16:35.052Z,112.97
2019-01-21T01:19:04.775Z,101.77
2019-01-21T01:21:34.520Z,115.23
2019-01-21T01:24:04.215Z,107.93
2019-01-21T01:26:34.051Z,112.93
2019-01-21T01:29:03.841Z,107.23
2019-01-21T01:31:33.619Z,104.40
2019-01-21T01:34:03.311Z,103.93
2019-01-21T01:36:33.079Z,110.47
2019-01-21T01:39:04.241Z,100.87
2019-01-21T01:41:33.951Z,105.27
2019-01-21T01:44:03.734Z,102.97
2019-01-21T01:46:33.433Z,89.03
2019-01-21T01:49:03.209Z,105.27
2019-01-21T01:51:32.867Z,95.07
2019-01-21T01:54:02.618Z,93.07
2019-01-21T01:56:32.374Z,96.37
2019-01-21T01:59:02.211Z,99.33
2019-01-21T02:01:31.926Z,97.27
2019-01-21T02:04:01.667Z,99.30
2019-01-21T02:06:31.426Z,100.33
2019-01-21T02:09:01.213Z,96.93
2019-01-21T02:11:30.946Z,109.83
2019-01-21T02:14:00.724Z,115.23
2019-01-21T02:16:30.453Z,97.07
2019-01-21T02:19:00.206Z,103.03
2019-01-21T02:21:32.629Z,105.73
2019-01-21T02:24:05.285Z,110.80
2019-01-21T02:26:37.947Z,99.37
2019-01-21T02:29:10.422Z,104.77
2019-01-21T02:31:48.980Z,104.17
2019-01-21T02:34:21.964Z,96.17
2019-01-21T02:37:13.832Z,94.73
2019-01-21T02:39:58.069Z,97.80
2019-01-21T02:42:42.348Z,96.93
2019-01-21T02:45:40.208Z,105.57
2019-01-21T02:48:15.495Z,89.37
2019-01-21T02:50:48.098Z,93.43
2019-01-21T02:53:23.739Z,92.03
2019-01-21T02:55:56.411Z,97.30
2019-01-21T02:58:44.129Z,91.47
2019-01-21T03:01:33.251Z,97.43
2019-01-21T03:04:28.009Z,101.53
2019-01-21T03:07:00.684Z,85.43
2019-01-21T03:09:36.152Z,97.20
2019-01-21T03:12:17.579Z,101.40
2019-01-21T03:15:09.691Z,102.97
2019-01-21T03:18:07.964Z,92.80
2019-01-21T03:20:44.843Z,97.93
2019-01-21T03:23:33.896Z,85.50
2019-01-21T03:26:22.772Z,96.23
2019-01-21T03:28:58.082Z,93.73
2019-01-21T03:31:45.662Z,93.83
2019-01-21T03:34:30.040Z,89.50
2019-01-21T03:37:11.704Z,102.90
2019-01-21T03:39:53.036Z,99.63
2019-01-21T03:42:25.702Z,92.60
2019-01-21T03:45:23.500Z,103.63
2019-01-21T03:47:56.173Z,95.00
2019-01-21T03:50:37.752Z,96.23
2019-01-21T03:53:28.157Z,87.90
2019-01-21T03:56:00.345Z,93.37
2019-01-21T03:58:52.263Z,89.67
2019-01-21T04:01:41.411Z,87.77
2019-01-21T04:04:36.542Z,83.80
2019-01-21T04:07:09.160Z,86.90
2019-01-21T04:09:58.077Z,91.13
2019-01-21T04:12:36.886Z,91.77
2019-01-21T04:15:32.121Z,98.90
2019-01-21T04:18:07.352Z,96.40
2019-01-21T04:21:02.135Z,96.90
2019-01-21T04:23:46.728Z,95.90
2019-01-21T04:26:35.745Z,83.93
2019-01-21T04:29:08.391Z,88.33
2019-01-21T04:31:55.787Z,93.60
2019-01-21T04:34:31.643Z,90.30
2019-01-21T04:37:23.312Z,88.63
2019-01-21T04:40:10.600Z,90.93
2019-01-21T04:42:57.853Z,96.20
2019-01-21T04:45:33.069Z,91.80
2019-01-21T04:48:23.914Z,96.47
2019-01-21T04:51:08.315Z,105.10
2019-01-21T04:53:43.719Z,99.07
2019-01-21T04:56:22.003Z,93.33
2019-01-21T04:59:10.943Z,90.23
2019-01-21T05:02:13.564Z,100.17
2019-01-21T05:04:48.987Z,101.97
2019-01-21T05:07:27.812Z,98.00
2019-01-21T05:10:31.817Z,95.23
2019-01-21T05:13:22.640Z,90.73
2019-01-21T05:16:12.647Z,87.10
2019-01-21T05:18:53.997Z,93.07
2019-01-21T05:21:32.613Z,100.23
2019-01-21T05:24:39.717Z,92.70
2019-01-21T05:27:21.323Z,84.53
2019-01-21T05:30:02.506Z,79.50
2019-01-21T05:32:44.082Z,87.77
2019-01-21T05:35:37.261Z,90.37
2019-01-21T05:38:09.965Z,81.50
2019-01-21T05:40:42.593Z,90.30
2019-01-21T05:43:31.699Z,78.57
2019-01-21T05:46:23.392Z,97.63
2019-01-21T05:49:28.663Z,84.60
2019-01-21T05:52:23.703Z,83.37
2019-01-21T05:55:11.326Z,81.93
2019-01-21T05:57:52.668Z,77.47
2019-01-21T06:00:44.516Z,80.97
2019-01-21T06:03:22.666Z,79.03
2019-01-21T06:06:07.510Z,76.57
2019-01-21T06:08:48.924Z,75.57
2019-01-21T06:11:24.276Z,74.00
2019-01-21T06:13:56.966Z,66.97
2019-01-21T06:16:53.570Z,87.03
2019-01-21T06:19:28.889Z,78.90
2019-01-21T06:22:16.124Z,70.50
2019-01-21T06:24:54.440Z,73.13
2019-01-21T06:27:47.676Z,67.03
2019-01-21T06:30:29.111Z,67.90
2019-01-21T06:33:22.466Z,74.20
2019-01-21T06:36:00.996Z,67.20
2019-01-21T06:38:36.281Z,73.70
2019-01-21T06:41:08.931Z,67.57
2019-01-21T06:43:53.214Z,76.40
2019-01-21T06:46:28.775Z,69.37
2019-01-21T06:49:18.112Z,73.73
2019-01-21T06:52:07.234Z,71.43
2019-01-21T06:54:42.683Z,77.93
2019-01-21T06:57:49.826Z,69.57
2019-01-21T07:00:22.484Z,72.63
2019-01-21T07:03:06.966Z,71.07
2019-01-21T07:05:39.636Z,72.07
2019-01-21T07:08:30.158Z,67.00
2019-01-21T07:11:11.801Z,68.13
2019-01-21T07:14:08.303Z,68.83
2019-01-21T07:17:00.403Z,64.03
2019-01-21T07:19:41.737Z,74.87
2019-01-21T07:22:23.363Z,73.17
2019-01-21T07:25:11.042Z,61.63
2019-01-21T07:27:49.405Z,72.37
2019-01-21T07:30:40.200Z,71.77
2019-01-21T07:33:39.711Z,72.10
2019-01-21T07:36:29.812Z,69.27
2019-01-21T07:39:07.491Z,73.97
2019-01-21T07:42:00.792Z,74.90
2019-01-21T07:44:51.151Z,80.23
2019-01-21T07:47:40.102Z,74.23
2019-01-21T07:50:21.205Z,73.17
2019-01-21T07:53:19.031Z,83.17
2019-01-21T07:56:12.605Z,78.80
2019-01-21T07:59:00.151Z,73.37
2019-01-21T08:01:32.956Z,81.77
2019-01-21T08:04:14.084Z,81.20
2019-01-21T08:06:46.718Z,85.00
2019-01-21T08:09:34.024Z,86.47
2019-01-21T08:12:26.007Z,86.70
2019-01-21T08:15:01.327Z,93.23
2019-01-21T08:17:36.541Z,87.47
2019-01-21T08:20:14.808Z,88.47
2019-01-21T08:22:53.015Z,94.20
2019-01-21T08:25:51.157Z,85.83
2019-01-21T08:28:38.729Z,88.20
2019-01-21T08:31:14.182Z,77.87
2019-01-21T08:33:55.283Z,81.30
2019-01-21T08:36:44.169Z,82.70
2019-01-21T08:39:43.504Z,90.53
2019-01-21T08:42:32.483Z,86.50
2019-01-21T08:45:17.173Z,74.50
2019-01-21T08:47:52.459Z,80.47
2019-01-21T08:50:42.766Z,84.20
2019-01-21T08:53:18.032Z,81.40
2019-01-21T08:56:05.475Z,95.83
2019-01-21T08:58:49.972Z,83.20
2019-01-21T09:01:28.123Z,87.43
2019-01-21T09:04:18.747Z,79.40
2019-01-21T09:06:51.432Z,81.10
2019-01-21T09:09:32.833Z,83.73
2019-01-21T09:12:11.538Z,87.23
2019-01-21T09:15:09.369Z,72.17
2019-01-21T09:17:47.888Z,76.40
2019-01-21T09:20:38.407Z,73.77
2019-01-21T09:23:28.536Z,74.03
2019-01-21T09:26:16.072Z,72.27
2019-01-21T09:29:06.733Z,65.57
2019-01-21T09:31:48.439Z,77.03
2019-01-21T09:34:32.851Z,61.63
2019-01-21T09:37:11.648Z,75.23
2019-01-21T09:39:44.399Z,68.50
2019-01-21T09:42:36.290Z,60.30
2019-01-21T09:45:14.685Z,65.90
2019-01-21T09:47:43.252Z,62.90
2019-01-21T09:50:13.196Z,56.10
2019-01-21T09:52:44.112Z,60.17
2019-01-21T09:55:16.312Z,55.53
2019-01-21T09:57:47.530Z,57.60
2019-01-21T10:00:18.917Z,56.80
2019-01-21T10:02:49.527Z,59.30
2019-01-21T10:05:19.370Z,54.87
2019-01-21T10:07:54.607Z,53.03
2019-01-21T10:10:33.137Z,58.87
2019-01-21T10:13:17.888Z,51.10
2019-01-21T10:16:02.213Z,60.40
2019-01-21T10:18:49.601Z,53.23
2019-01-21T10:21:31.216Z,55.63
2019-01-21T10:24:12.801Z,54.47
2019-01-21T10:27:00.639Z,51.40
2019-01-21T10:29:52.573Z,49.43
2019-01-21T10:32:34.133Z,51.43
2019-01-21T10:35:32.058Z,49.77
2019-01-21T10:38:36.347Z,50.80
2019-01-21T10:41:11.847Z,50.87
2019-01-21T10:44:02.506Z,50.57
2019-01-21T10:46:46.923Z,51.43
2019-01-21T10:49:38.980Z,47.43
2019-01-21T10:52:32.572Z,51.87
2019-01-21T10:55:20.271Z,51.33
2019-01-21T10:57:53.093Z,50.30
2019-01-21T11:00:37.515Z,49.07
2019-01-21T11:03:13.160Z,51.47
2019-01-21T11:05:54.815Z,53.63
2019-01-21T11:08:30.242Z,48.50
2019-01-21T11:11:08.644Z,49.47
2019-01-21T11:13:44.376Z,51.40
2019-01-21T11:16:32.052Z,51.23
2019-01-21T11:19:24.012Z,45.30
2019-01-21T11:21:57.150Z,43.23
2019-01-21T11:24:38.855Z,45.13
2019-01-21T11:27:29.206Z,44.23
2019-01-21T11:30:19.777Z,43.33
2019-01-21T11:32:59.225Z,42.10
2019-01-21T11:35:34.759Z,42.63
2019-01-21T11:38:22.565Z,49.03
2019-01-21T11:41:07.374Z,38.27
2019-01-21T11:43:43.212Z,44.30
2019-01-21T11:46:34.659Z,40.30
2019-01-21T11:49:13.155Z,42.00
2019-01-21T11:51:55.017Z,45.83
2019-01-21T11:54:48.453Z,46.07
2019-01-21T11:57:26.814Z,43.73
2019-01-21T12:00:06.554Z,46.10
2019-01-21T12:03:00.000Z,39.83
2019-01-21T12:05:32.605Z,41.87
2019-01-21T12:08:19.758Z,41.43
2019-01-21T12:11:08.997Z,40.07
2019-01-21T12:13:47.793Z,39.33
2019-01-21T12:16:32.464Z,40.03
2019-01-21T12:19:07.758Z,43.37
2019-01-21T12:21:49.179Z,42.63
2019-01-21T12:24:20.141Z,40.70
2019-01-21T12:27:13.395Z,41.20
2019-01-21T12:29:52.039Z,39.70
2019-01-21T12:32:41.093Z,38.83
2019-01-21T12:35:25.932Z,38.63
2019-01-21T12:38:33.224Z,36.07
2019-01-21T12:41:12.711Z,36.90
2019-01-21T12:43:45.379Z,37.93
2019-01-21T12:46:20.904Z,42.23
2019-01-21T12:49:08.107Z,39.23
2019-01-21T12:51:40.750Z,41.17
2019-01-21T12:54:13.638Z,39.97
2019-01-21T12:57:11.113Z,39.93
2019-01-21T12:59:43.776Z,41.00
2019-01-21T13:02:19.358Z,41.30
2019-01-21T13:04:54.586Z,39.50
2019-01-21T13:07:46.366Z,38.97
2019-01-21T13:10:19.105Z,40.33
2019-01-21T13:13:03.344Z,38.47
2019-01-21T13:15:45.112Z,36.80
2019-01-21T13:18:26.541Z,39.57
2019-01-21T13:21:11.095Z,38.00
2019-01-21T13:23:47.128Z,37.10
2019-01-21T13:26:28.676Z,35.30
2019-01-21T13:29:04.126Z,35.17
2019-01-21T13:31:51.872Z,38.53
2019-01-21T13:34:42.184Z,36.30
2019-01-21T13:37:32.763Z,35.87
2019-01-21T13:40:33.737Z,34.70
2019-01-21T13:43:06.451Z,41.17
2019-01-21T13:45:47.865Z,39.27
2019-01-21T13:48:20.601Z,36.87
2019-01-21T13:50:55.912Z,39.63
2019-01-21T13:53:41.029Z,36.53
2019-01-21T13:56:19.292Z,34.80
2019-01-21T13:58:58.036Z,33.07
2019-01-21T14:01:54.318Z,37.00
2019-01-21T14:04:29.774Z,35.20
2019-01-21T14:07:17.509Z,38.90
2019-01-21T14:10:01.753Z,35.83
2019-01-21T14:12:43.443Z,32.70
2019-01-21T14:15:19.200Z,28.63
2019-01-21T14:17:54.810Z,32.97
2019-01-21T14:20:30.429Z,33.97
2019-01-21T14:23:14.760Z,28.40
2019-01-21T14:25:56.699Z,28.47
2019-01-21T14:28:38.265Z,36.47
2019-01-21T14:31:33.143Z,30.57
2019-01-21T14:34:17.544Z,30.53
2019-01-21T14:37:07.389Z,28.67
2019-01-21T14:39:43.184Z,31.57
2019-01-21T14:42:32.385Z,29.27
2019-01-21T14:45:28.939Z,30.03
2019-01-21T14:48:01.578Z,29.27
2019-01-21T14:50:52.322Z,30.17
2019-01-21T14:53:44.247Z,28.67
2019-01-21T14:56:20.081Z,30.30
2019-01-21T14:58:55.667Z,34.43
2019-01-21T15:01:43.081Z,31.20
2019-01-21T15:04:21.489Z,31.50
2019-01-21T15:06:54.235Z,32.67
2019-01-21T15:09:33.073Z,32.97
2019-01-21T15:12:22.823Z,34.37
2019-01-21T15:15:28.572Z,29.27
2019-01-21T15:18:20.821Z,31.07
2019-01-21T15:21:02.431Z,31.23
2019-01-21T15:23:43.902Z,32.43
2019-01-21T15:26:37.678Z,33.73
2019-01-21T15:29:22.150Z,33.63
2019-01-21T15:31:55.248Z,31.80
2019-01-21T15:34:42.640Z,34.97
2019-01-21T15:37:18.177Z,36.37
2019-01-21T15:40:11.688Z,33.83
2019-01-21T15:42:46.237Z,32.70
2019-01-21T15:45:19.349Z,36.97
2019-01-21T15:48:00.950Z,32.73
2019-01-21T15:50:36.528Z,35.97
2019-01-21T15:53:20.956Z,33.43
2019-01-21T15:55:59.420Z,34.80
2019-01-21T15:58:42.621Z,34.93
2019-01-21T16:01:36.301Z,33.80
2019-01-21T16:04:14.949Z,33.60
2019-01-21T16:06:47.852Z,38.90
2019-01-21T16:09:35.300Z,38.27
2019-01-21T16:12:10.825Z,36.43
2019-01-21T16:14:46.600Z,40.40
2019-01-21T16:17:52.166Z,38.50
2019-01-21T16:20:25.610Z,35.73
2019-01-21T16:23:29.974Z,38.27
2019-01-21T16:25:59.667Z,34.37
2019-01-21T16:28:38.384Z,38.27
2019-01-21T16:31:11.133Z,43.97
2019-01-21T16:34:06.243Z,38.13
2019-01-21T16:36:47.567Z,37.67
2019-01-21T16:39:38.291Z,38.73
2019-01-21T16:42:15.850Z,37.90
2019-01-21T16:44:46.862Z,39.00
2019-01-21T16:47:17.147Z,38.50
2019-01-21T16:49:47.055Z,33.60
2019-01-21T16:52:16.925Z,37.50
2019-01-21T16:54:46.858Z,38.73
2019-01-21T16:57:16.710Z,40.77
2019-01-21T16:59:46.631Z,32.73
2019-01-21T17:02:16.522Z,36.70
2019-01-21T17:04:46.288Z,36.10
2019-01-21T17:07:16.141Z,39.80
2019-01-21T17:09:45.915Z,37.37
2019-01-21T17:12:15.607Z,38.53
2019-01-21T17:14:45.545Z,36.43
2019-01-21T17:17:15.378Z,36.33
2019-01-21T17:19:45.250Z,34.00
2019-01-21T17:22:15.128Z,38.17
2019-01-21T17:24:45.116Z,36.27
2019-01-21T17:27:15.021Z,37.80
2019-01-21T17:29:44.922Z,37.30
2019-01-21T17:32:14.644Z,39.20
2019-01-21T17:34:44.435Z,35.67
2019-01-21T17:37:14.058Z,34.57
2019-01-21T17:39:43.946Z,37.47
2019-01-21T17:42:13.706Z,35.40
2019-01-21T17:44:43.506Z,39.67
2019-01-21T17:47:13.178Z,36.77
2019-01-21T17:49:42.891Z,40.23
2019-01-21T17:52:12.571Z,39.20
2019-01-21T17:54:43.231Z,36.70
2019-01-21T17:57:12.983Z,37.63
2019-01-21T17:59:42.605Z,38.27
2019-01-21T18:02:12.393Z,37.63
2019-01-21T18:04:42.227Z,37.87
2019-01-21T18:07:12.089Z,40.57
2019-01-21T18:09:42.056Z,41.37
2019-01-21T18:12:12.011Z,37.57
2019-01-21T18:14:41.766Z,40.77
2019-01-21T18:17:11.495Z,41.57
2019-01-21T18:19:41.414Z,41.70
2019-01-21T18:22:11.255Z,42.67
2019-01-21T18:24:41.123Z,42.10
2019-01-21T18:27:10.956Z,41.03
2019-01-21T18:29:40.841Z,41.37
2019-01-21T18:32:10.754Z,44.87
2019-01-21T18:34:40.649Z,43.83
2019-01-21T18:37:10.605Z,42.80
2019-01-21T18:39:40.357Z,43.77
2019-01-21T18:42:10.170Z,41.23
2019-01-21T18:44:40.158Z,44.43
2019-01-21T18:47:09.874Z,44.23
2019-01-21T18:49:39.709Z,39.57
2019-01-21T18:52:09.587Z,43.60
2019-01-21T18:54:39.682Z,44.07
2019-01-21T18:57:09.413Z,45.20
2019-01-21T18:59:39.220Z,44.70
2019-01-21T19:02:09.227Z,40.67
2019-01-21T19:04:39.073Z,49.30
2019-01-21T19:07:09.124Z,40.13
2019-01-21T19:09:38.867Z,46.00
2019-01-21T19:12:08.691Z,43.17
2019-01-21T19:14:38.492Z,45.40
2019-01-21T19:17:08.358Z,43.60
2019-01-21T19:19:38.033Z,44.07
2019-01-21T19:22:07.696Z,43.50
2019-01-21T19:24:37.484Z,41.07
2019-01-21T19:27:07.399Z,45.67
2019-01-21T19:29:37.293Z,41.67
2019-01-21T19:32:07.088Z,41.13
2019-01-21T19:34:36.878Z,44.17
2019-01-21T19:37:06.582Z,45.23
2019-01-21T19:39:36.411Z,42.93
2019-01-21T19:42:06.248Z,42.63
2019-01-21T19:44:36.216Z,40.50
2019-01-21T19:47:05.932Z,43.30
2019-01-21T19:49:35.786Z,43.20
2019-01-21T19:52:05.653Z,39.30
2019-01-21T19:54:35.474Z,35.87
2019-01-21T19:57:05.368Z,35.97
2019-01-21T19:59:35.243Z,38.33
2019-01-21T20:02:04.931Z,38.67
2019-01-21T20:04:34.731Z,35.90
2019-01-21T20:07:04.502Z,40.13
2019-01-21T20:09:34.376Z,37.27
2019-01-21T20:12:04.353Z,35.60
2019-01-21T20:14:34.092Z,37.50
2019-01-21T20:17:03.861Z,39.77
2019-01-21T20:19:33.674Z,37.30
2019-01-21T20:22:07.975Z,36.67
2019-01-21T20:24:35.647Z,36.67
2019-01-21T20:27:05.636Z,36.57
2019-01-21T20:29:35.468Z,38.60
2019-01-21T20:32:05.641Z,37.00
2019-01-21T20:34:35.566Z,37.63
2019-01-21T20:37:05.506Z,45.77
2019-01-21T20:39:38.279Z,36.70
2019-01-21T20:42:07.898Z,34.47
2019-01-21T20:44:37.862Z,35.77
2019-01-21T20:47:07.599Z,35.63
2019-01-21T20:49:37.543Z,39.90
2019-01-21T20:52:13.914Z,34.27
2019-01-21T20:54:38.748Z,40.13
2019-01-21T20:57:08.662Z,36.23
2019-01-21T20:59:38.523Z,37.43
2019-01-21T21:02:08.351Z,32.90
2019-01-21T21:04:38.215Z,35.90
2019-01-21T21:07:08.302Z,36.03
2019-01-21T21:09:38.089Z,32.00
2019-01-21T21:12:07.896Z,34.53
2019-01-21T21:14:37.772Z,34.60
2019-01-21T21:17:09.602Z,33.57
2019-01-21T21:19:39.637Z,35.03
2019-01-21T21:22:09.387Z,35.17
2019-01-21T21:24:39.287Z,37.07
2019-01-21T21:27:10.490Z,38.50
2019-01-21T21:29:40.548Z,32.83
2019-01-21T21:32:10.319Z,37.37
2019-01-21T21:34:40.239Z,40.73
2019-01-21T21:37:10.129Z,35.20
2019-01-21T21:39:40.065Z,37.53
2019-01-21T21:42:10.320Z,36.73
2019-01-21T21:44:40.223Z,35.50
2019-01-21T21:47:10.087Z,32.83
2019-01-21T21:49:40.068Z,35.77
2019-01-21T21:52:09.996Z,34.90
2019-01-21T21:54:40.234Z,34.77
2019-01-21T21:57:10.045Z,36.13
2019-01-21T21:59:40.117Z,40.00
2019-01-21T22:02:09.926Z,36.83
2019-01-21T22:04:39.712Z,37.20
2019-01-21T22:07:10.049Z,36.07
2019-01-21T22:09:39.817Z,36.73
2019-01-21T22:12:10.700Z,34.00
2019-01-21T22:14:40.674Z,39.43
2019-01-21T22:17:10.506Z,36.43
2019-01-21T22:19:40.741Z,36.90
2019-01-21T22:22:10.660Z,38.83
2019-01-21T22:24:40.623Z,38.73
2019-01-21T22:27:10.502Z,40.40
2019-01-21T22:29:40.278Z,44.37
2019-01-21T22:32:10.179Z,37.43
2019-01-21T22:34:39.897Z,43.00
2019-01-21T22:37:09.761Z,37.67
2019-01-21T22:39:39.783Z,39.20
2019-01-21T22:42:09.423Z,41.07
2019-01-21T22:44:39.217Z,40.97
2019-01-21T22:47:08.970Z,36.03
2019-01-21T22:49:38.849Z,41.70
2019-01-21T22:52:08.643Z,35.67
2019-01-21T22:54:38.547Z,36.73
2019-01-21T22:57:08.435Z,38.40
2019-01-21T22:59:38.282Z,38.00
2019-01-21T23:02:07.999Z,40.53
2019-01-21T23:04:37.979Z,37.17
2019-01-21T23:07:07.737Z,41.90
2019-01-21T23:09:37.563Z,38.13
2019-01-21T23:12:07.303Z,38.87
2019-01-21T23:14:37.131Z,40.00
2019-01-21T23:17:06.909Z,39.27
2019-01-21T23:19:36.775Z,39.00
2019-01-21T23:22:06.521Z,44.37
2019-01-21T23:24:36.375Z,34.33
2019-01-21T23:27:06.145Z,36.47
2019-01-21T23:29:36.051Z,38.53
2019-01-21T23:32:05.919Z,38.20
2019-01-21T23:34:35.693Z,37.30
2019-01-21T23:37:05.624Z,35.37
2019-01-21T23:39:35.437Z,39.17
2019-01-21T23:42:05.164Z,42.40
2019-01-21T23:44:34.934Z,40.57
2019-01-21T23:47:04.669Z,40.13
2019-01-21T23:49:34.531Z,40.10
2019-01-21T23:52:04.340Z,39.07
2019-01-21T23:54:34.013Z,42.23
2019-01-21T23:57:03.825Z,38.33
2019-01-21T23:59:33.613Z,39.20
